Rechercher aéroport 
image banner adimage banner ad
image banner ad

LI-NU02 - San Teodoro

Situé à San Teodoro, Italy

ICAO - , IATA -

Données fournies par Airmate  

Information générale

Coordonnées: N40°48'7" E9°39'32"
Élévation : 3 feet MSL.
 
Voir autres Aéroports à Sardinia

Données opérationnelles

Accessible au public
Heure actuelle UTC:
Heure actuelle locale:
Météo à : LIEO - Olbia/Costa Smeralda ( 16 km )
METAR: LIEO 261020Z 24017G27KT 210V300 9999 R05/P1500N R23/1200N SCT030 18/08 Q1006
TAF: TAF LIEO 260500Z 2606/2706 26025G35KT 9999 SCT030 TEMPO 2700/2706 TSRA
Voir NOTAMs / SUP AIP / TFR affectant cet aéroport [VIEW]
Fréquences de communication: [VIEW]

Pistes:

Identifiant RWYQFULongueur (ft)Largeur (ft)SurfaceLDA (ft)
15164065GRASS
33164065GRASS

Coordonnées de l'aéroport

Adresse: San Teodoro Italy

Autres services d'aviation

Clubs d'aviation (sans but lucratif)

San Teodoro

San Teodoro
info@santeodoroulm.it+393473701567
+393473701567

Vue satellite de LI-NU02